Time;durP1;ratioP1;P1;durP2;ratioP2;P2;SDS_P1;SDS_P2;PMS_P1;PMS_P2;Temp;Humidity;BMP_temperature;BMP_pressure;BME280_temperature;BME280_humidity;BME280_pressure;Samples;Min_cycle;Max_cycle;Signal;HPM_P1;HPM_P2
2022/05/24 00:00:37;;;;;;;8.60;4.47;;;;;;;7.81;100.00;99165.09;5153165;27;20047;-61
2022/05/24 00:03:03;;;;;;;7.38;3.65;;;;;;;7.82;100.00;99170.19;5152862;27;20046;-61
2022/05/24 00:05:32;;;;;;;6.07;4.00;;;;;;;7.77;100.00;99182.16;5152991;27;20116;-62
2022/05/24 00:07:59;;;;;;;6.55;4.10;;;;;;;7.81;100.00;99197.84;5152785;27;20062;-61
2022/05/24 00:10:27;;;;;;;7.32;3.97;;;;;;;7.74;100.00;99201.16;5152713;27;20058;-61
2022/05/24 00:12:55;;;;;;;7.53;4.07;;;;;;;7.73;100.00;99203.09;5152582;27;20077;-62
2022/05/24 00:15:27;;;;;;;9.25;4.40;;;;;;;7.65;100.00;99211.41;5152992;27;20054;-61
2022/05/24 00:17:56;;;;;;;5.60;3.95;;;;;;;7.62;100.00;99233.91;5152592;27;20097;-61
2022/05/24 00:20:25;;;;;;;7.40;3.90;;;;;;;7.60;100.00;99245.19;5152686;27;20047;-61
2022/05/24 00:22:52;;;;;;;8.32;4.15;;;;;;;7.60;100.00;99252.53;5152532;27;20055;-61
2022/05/24 00:25:18;;;;;;;7.18;4.35;;;;;;;7.57;100.00;99267.69;5152930;27;20051;-62
2022/05/24 00:27:45;;;;;;;8.65;4.55;;;;;;;7.58;100.00;99273.94;5152397;27;20055;-61
2022/05/24 00:30:13;;;;;;;7.88;3.83;;;;;;;7.57;100.00;99286.00;5152594;27;20054;-61
2022/05/24 00:32:40;;;;;;;6.18;4.38;;;;;;;7.54;100.00;99273.81;5152262;27;20062;-61
2022/05/24 00:35:06;;;;;;;7.88;4.57;;;;;;;7.52;100.00;99273.38;5152309;27;20540;-61
2022/05/24 00:37:34;;;;;;;5.57;4.47;;;;;;;7.52;100.00;99278.81;5152196;27;20046;-61
2022/05/24 00:40:00;;;;;;;6.43;4.05;;;;;;;7.48;100.00;99283.38;5152263;27;20483;-61
2022/05/24 00:42:31;;;;;;;6.82;4.22;;;;;;;7.41;100.00;99286.66;5152208;27;20050;-61
2022/05/24 00:45:03;;;;;;;6.90;4.07;;;;;;;7.35;100.00;99290.75;5152586;27;20054;-61
2022/05/24 00:47:32;;;;;;;9.90;4.93;;;;;;;7.27;100.00;99300.63;5152496;27;20063;-61
2022/05/24 00:50:03;;;;;;;6.65;4.15;;;;;;;7.29;100.00;99292.91;5152069;27;20051;-61
2022/05/24 00:52:34;;;;;;;7.55;4.22;;;;;;;7.25;100.00;99286.53;5152439;27;20054;-61
2022/05/24 00:55:00;;;;;;;6.85;4.28;;;;;;;7.26;100.00;99287.31;5152075;27;20430;-61
2022/05/24 00:57:30;;;;;;;7.80;4.05;;;;;;;7.23;100.00;99279.81;5151978;27;20050;-61
2022/05/24 01:00:03;;;;;;;5.95;3.97;;;;;;;7.22;100.00;99289.16;5152112;27;20050;-61
2022/05/24 01:02:30;;;;;;;7.45;4.38;;;;;;;7.15;100.00;99288.91;5151912;27;20058;-61
2022/05/24 01:04:57;;;;;;;8.55;4.40;;;;;;;7.15;100.00;99295.16;5151918;27;20057;-61
2022/05/24 01:07:23;;;;;;;10.02;4.53;;;;;;;7.14;100.00;99290.06;5151741;27;20087;-61
2022/05/24 01:09:53;;;;;;;8.35;4.15;;;;;;;7.11;100.00;99290.72;5151708;27;20050;-61
2022/05/24 01:12:23;;;;;;;9.23;4.82;;;;;;;7.10;100.00;99289.94;5152230;27;20737;-61
2022/05/24 01:14:50;;;;;;;9.90;4.13;;;;;;;7.04;100.00;99294.81;5151214;27;20472;-61
2022/05/24 01:17:17;;;;;;;8.25;4.47;;;;;;;7.00;100.00;99282.19;5152016;27;20058;-61
2022/05/24 01:19:47;;;;;;;7.43;4.38;;;;;;;6.96;100.00;99278.53;5151879;27;20050;-61
2022/05/24 01:22:44;;;;;;;7.55;4.57;;;;;;;6.95;100.00;99283.19;5151580;27;20059;-61
2022/05/24 01:25:21;;;;;;;10.13;4.88;;;;;;;6.94;100.00;99278.09;5151586;27;20055;-61
2022/05/24 01:27:48;;;;;;;8.80;4.85;;;;;;;6.92;100.00;99278.41;5151653;27;20058;-61
2022/05/24 01:30:14;;;;;;;6.68;4.05;;;;;;;6.92;100.00;99283.88;5151597;27;20074;-61
2022/05/24 01:38:15;;;;;;;8.63;4.78;;;;;;;6.87;100.00;99280.59;5151439;27;20058;-61
2022/05/24 01:40:43;;;;;;;7.82;4.78;;;;;;;6.88;100.00;99277.50;5151905;27;20065;-61
2022/05/24 01:43:10;;;;;;;11.98;4.38;;;;;;;6.87;100.00;99280.59;5151569;27;20054;-61
2022/05/24 01:45:43;;;;;;;7.05;4.38;;;;;;;6.86;100.00;99285.22;5151703;27;20069;-61
2022/05/24 01:48:13;;;;;;;9.18;4.63;;;;;;;6.82;100.00;99285.09;5151295;27;20498;-61
2022/05/24 01:50:40;;;;;;;9.05;4.88;;;;;;;6.85;100.00;99286.34;5151413;27;20061;-61
2022/05/24 01:53:13;;;;;;;7.03;3.97;;;;;;;6.81;100.00;99288.16;5151293;27;20062;-61
2022/05/24 01:55:43;;;;;;;11.95;4.60;;;;;;;6.81;100.00;99288.97;5151321;27;20403;-61
2022/05/24 01:58:15;;;;;;;7.80;4.13;;;;;;;6.80;100.00;99281.94;5151218;27;20433;-61
2022/05/24 02:00:50;;;;;;;7.75;4.30;;;;;;;6.80;100.00;99294.75;5151065;27;20051;-61
2022/05/24 02:03:16;;;;;;;8.82;4.45;;;;;;;6.84;100.00;99292.94;5151072;27;20065;-61
2022/05/24 02:05:42;;;;;;;7.13;4.43;;;;;;;6.85;100.00;99289.09;5151167;27;20058;-61
2022/05/24 02:08:11;;;;;;;9.43;4.18;;;;;;;6.81;100.00;99288.97;5151351;27;20054;-61
2022/05/24 02:10:43;;;;;;;7.28;4.60;;;;;;;6.93;100.00;99274.59;5150941;27;20099;-61
2022/05/24 02:13:13;;;;;;;7.93;4.43;;;;;;;7.03;100.00;99268.69;5151160;27;20059;-61
2022/05/24 02:15:43;;;;;;;6.88;4.28;;;;;;;7.03;100.00;99274.16;5150859;27;20096;-61
2022/05/24 02:18:12;;;;;;;8.60;4.07;;;;;;;7.08;100.00;99279.38;5151386;27;20055;-61
2022/05/24 02:20:40;;;;;;;7.32;4.20;;;;;;;7.03;100.00;99274.16;5150867;27;20051;-61
2022/05/24 02:23:07;;;;;;;6.47;4.18;;;;;;;7.10;100.00;99275.50;5150911;27;20055;-61
2022/05/24 02:25:38;;;;;;;7.38;4.10;;;;;;;7.14;100.00;99276.44;5150844;27;20058;-61
2022/05/24 02:28:08;;;;;;;7.38;4.30;;;;;;;7.20;100.00;99284.06;5154251;27;20061;-61
2022/05/24 02:30:37;;;;;;;6.00;4.30;;;;;;;7.27;100.00;99281.56;5154622;27;20057;-61
2022/05/24 02:33:03;;;;;;;6.28;4.00;;;;;;;7.36;100.00;99286.88;5154342;27;20058;-61
2022/05/24 02:35:30;;;;;;;8.63;4.05;;;;;;;7.92;100.00;99287.06;5154246;27;20050;-61
2022/05/24 02:37:56;;;;;;;6.38;4.32;;;;;;;8.55;100.00;99308.44;5154220;27;20509;-61
2022/05/24 02:43:06;;;;;;;;;;;;;;;9.32;100.00;99294.47;5154615;27;20417;-62
2022/05/24 02:45:33;;;;;;;7.32;4.18;;;;;;;9.81;100.00;99233.03;5154340;27;19927;-61
2022/05/24 02:48:00;;;;;;;5.25;3.75;;;;;;;10.28;100.00;99100.56;5154255;27;20518;-61
2022/05/24 02:50:26;;;;;;;5.47;3.42;;;;;;;10.65;100.00;98932.78;5154128;27;20050;-61
2022/05/24 02:52:53;;;;;;;7.75;3.85;;;;;;;10.85;100.00;98791.63;5153984;27;20141;-62
2022/05/24 02:55:20;;;;;;;4.00;3.42;;;;;;;11.12;100.00;98681.78;5153930;27;20057;-61
2022/05/24 02:57:47;;;;;;;8.15;3.53;;;;;;;11.50;100.00;98592.66;5153877;27;20425;-61
2022/05/24 03:00:16;;;;;;;7.05;3.95;;;;;;;11.75;100.00;98480.94;5154073;27;20057;-62
2022/05/24 03:02:43;;;;;;;3.95;3.22;;;;;;;12.07;100.00;98416.28;5153898;27;20062;-62
2022/05/24 03:05:12;;;;;;;4.15;3.45;;;;;;;12.44;100.00;98267.41;5153875;27;20054;-62
2022/05/24 03:10:22;;;;;;;;;;;;;;;12.69;100.00;98124.28;5154304;27;20053;-62
2022/05/24 03:15:33;;;;;;;;;;;;;;;13.43;100.00;98023.00;5154561;27;20081;-62
2022/05/24 03:18:00;;;;;;;3.90;3.20;;;;;;;13.63;100.00;97985.38;5153814;27;19923;-61
2022/05/24 03:20:27;;;;;;;4.80;3.17;;;;;;;13.99;100.00;97951.78;5153878;27;20050;-62
2022/05/24 03:22:54;;;;;;;7.90;3.90;;;;;;;13.97;100.00;97907.38;5153722;27;20630;-62
2022/05/24 03:25:21;;;;;;;7.25;3.40;;;;;;;14.46;100.00;97906.94;5153941;27;20531;-62
2022/05/24 03:27:47;;;;;;;4.97;3.63;;;;;;;14.50;100.00;97869.88;5153785;27;20090;-62
2022/05/24 03:30:14;;;;;;;5.18;3.20;;;;;;;14.71;100.00;97860.41;5153438;27;20509;-62
2022/05/24 03:32:40;;;;;;;5.43;3.83;;;;;;;15.14;100.00;97859.53;5153490;27;20437;-62
2022/05/24 03:35:11;;;;;;;4.88;3.55;;;;;;;15.14;100.00;97854.00;5153517;27;20058;-62
2022/05/24 03:37:38;;;;;;;6.07;3.65;;;;;;;15.27;100.00;97856.88;5152642;27;20054;-62
2022/05/24 03:40:06;;;;;;;5.50;3.72;;;;;;;15.38;100.00;97854.66;5153241;27;20069;-62
2022/05/24 03:42:32;;;;;;;8.45;3.95;;;;;;;15.66;100.00;97869.00;5153474;27;20074;-63
2022/05/24 03:44:59;;;;;;;4.47;3.83;;;;;;;15.91;100.00;97865.69;5153122;27;20055;-62
2022/05/24 03:47:25;;;;;;;3.90;3.17;;;;;;;16.35;100.00;97885.53;5153208;27;20403;-62
2022/05/24 03:49:51;;;;;;;4.57;4.18;;;;;;;16.50;100.00;97888.72;5153404;27;20050;-62
2022/05/24 03:52:17;;;;;;;10.60;3.45;;;;;;;16.85;100.00;97929.28;5153388;27;20411;-62
2022/05/24 03:54:44;;;;;;;4.65;3.75;;;;;;;17.03;100.00;97930.81;5153291;27;20050;-62
2022/05/24 03:59:55;;;;;;;6.50;3.67;;;;;;;17.57;100.00;97949.41;5152869;27;20100;-63
2022/05/24 04:02:21;;;;;;;6.75;4.28;;;;;;;17.83;100.00;97966.88;5152882;27;20061;-62
2022/05/24 04:04:48;;;;;;;5.78;3.63;;;;;;;17.87;100.00;97998.81;5153114;27;20055;-62
2022/05/24 04:07:14;;;;;;;5.47;4.05;;;;;;;18.08;100.00;97974.41;5152925;27;20121;-63
2022/05/24 04:09:40;;;;;;;5.80;3.38;;;;;;;18.58;100.00;98045.72;5153002;27;20058;-63
2022/05/24 04:12:08;;;;;;;9.10;4.10;;;;;;;18.49;100.00;98070.63;5152818;27;20103;-63
2022/05/24 04:14:34;;;;;;;8.02;3.00;;;;;;;18.52;100.00;98100.25;5152732;27;20402;-63
2022/05/24 04:17:01;;;;;;;5.18;3.17;;;;;;;18.57;100.00;98155.22;5152609;27;20534;-63
2022/05/24 04:19:27;;;;;;;5.03;3.20;;;;;;;18.88;100.00;98192.78;5152618;27;20058;-63
2022/05/24 04:21:53;;;;;;;6.07;2.67;;;;;;;18.98;100.00;98217.44;5152523;27;20107;-63
2022/05/24 04:24:19;;;;;;;5.97;3.05;;;;;;;19.06;100.00;98212.47;5152474;27;20509;-63
2022/05/24 04:26:46;;;;;;;5.80;2.97;;;;;;;19.54;100.00;98198.59;5152393;27;20058;-63
2022/05/24 04:29:13;;;;;;;6.07;3.05;;;;;;;19.71;100.00;98213.91;5152316;27;20061;-63
2022/05/24 04:31:39;;;;;;;6.18;2.80;;;;;;;19.68;100.00;98256.53;5152678;27;20058;-63
2022/05/24 04:34:06;;;;;;;4.25;2.90;;;;;;;19.86;100.00;98264.25;5152153;27;20065;-63
2022/05/24 04:36:32;;;;;;;5.47;3.20;;;;;;;20.32;100.00;98284.91;5152372;27;20417;-63
2022/05/24 04:38:59;;;;;;;7.32;3.15;;;;;;;20.20;100.00;98292.09;5152345;27;20058;-63
2022/05/24 04:44:10;;;;;;;4.45;2.80;;;;;;;20.56;100.00;98329.84;5152325;27;20049;-63
2022/05/24 04:49:23;;;;;;;5.20;3.28;;;;;;;20.38;100.00;98322.06;5151224;27;20069;-63
2022/05/24 04:51:52;;;;;;;13.50;3.65;;;;;;;20.35;100.00;98322.19;5151470;27;20429;-63
2022/05/24 04:54:19;;;;;;;4.65;3.10;;;;;;;20.97;100.00;98308.44;5151967;27;20073;-63
2022/05/24 04:56:46;;;;;;;5.35;3.28;;;;;;;21.01;100.00;98323.00;5151760;27;20425;-63
2022/05/24 04:59:12;;;;;;;4.30;3.25;;;;;;;21.41;100.00;98332.66;5152007;27;20050;-63
2022/05/24 05:01:39;;;;;;;7.65;3.60;;;;;;;21.40;100.00;98351.41;5151962;27;20054;-64
2022/05/24 05:04:05;;;;;;;6.22;3.83;;;;;;;20.71;100.00;98341.22;5151934;27;20055;-64
2022/05/24 05:06:31;;;;;;;6.03;3.65;;;;;;;21.29;100.00;98351.81;5151594;27;20058;-64
2022/05/24 05:08:57;;;;;;;6.00;3.65;;;;;;;21.20;100.00;98359.34;5152021;27;20058;-64
2022/05/24 05:11:24;;;;;;;4.70;3.58;;;;;;;21.49;100.00;98348.66;5152051;27;20073;-64
2022/05/24 05:13:51;;;;;;;5.10;3.13;;;;;;;21.92;100.00;98358.09;5152064;27;20238;-64
2022/05/24 05:16:17;;;;;;;6.15;3.58;;;;;;;21.67;100.00;98375.84;5151783;27;20556;-64
2022/05/24 05:18:45;;;;;;;5.78;3.60;;;;;;;22.40;100.00;98369.69;5151640;27;20787;-64
2022/05/24 05:21:11;;;;;;;3.53;3.00;;;;;;;22.70;100.00;98383.97;5151724;27;20050;-64
2022/05/24 05:23:37;;;;;;;6.10;3.38;;;;;;;21.81;100.00;98382.84;5151884;27;20055;-64
2022/05/24 05:26:04;;;;;;;5.05;3.35;;;;;;;22.09;100.00;98369.75;5151640;27;20127;-64
2022/05/24 05:28:30;;;;;;;3.30;3.00;;;;;;;21.97;100.00;98349.13;5151461;27;20061;-64
2022/05/24 05:33:40;;;;;;;;;;;;;;;22.43;100.00;98391.09;5151930;27;20540;-64
2022/05/24 05:36:07;;;;;;;4.93;3.17;;;;;;;22.89;100.00;98379.91;5151229;27;20009;-64
2022/05/24 05:38:33;;;;;;;7.20;3.20;;;;;;;23.18;100.00;98395.41;5151094;27;20429;-64
2022/05/24 05:41:00;;;;;;;3.85;3.03;;;;;;;23.45;100.00;98386.19;5151097;27;20050;-64
2022/05/24 05:43:26;;;;;;;5.05;3.13;;;;;;;23.67;100.00;98406.31;5151038;27;20047;-64
2022/05/24 05:45:53;;;;;;;5.90;2.63;;;;;;;23.79;100.00;98390.59;5151005;27;20051;-64
2022/05/24 05:48:19;;;;;;;4.50;2.65;;;;;;;24.00;100.00;98411.19;5151103;27;20054;-64
2022/05/24 05:50:47;;;;;;;5.28;2.95;;;;;;;24.35;100.00;98417.03;5151103;27;20050;-57
2022/05/24 05:53:14;;;;;;;5.68;3.25;;;;;;;24.66;100.00;98435.53;5151241;27;20051;-63
2022/05/24 05:55:41;;;;;;;5.25;2.70;;;;;;;25.11;100.00;98431.59;5151170;27;20258;-60
2022/05/24 05:58:07;;;;;;;3.42;2.72;;;;;;;25.43;100.00;98439.56;5150921;27;20054;-59
2022/05/24 06:00:34;;;;;;;4.00;2.97;;;;;;;25.50;100.00;98447.59;5150713;27;20055;-55
2022/05/24 06:03:00;;;;;;;4.70;2.80;;;;;;;25.11;100.00;98453.22;5154606;27;20073;-57
2022/05/24 06:05:27;;;;;;;5.70;2.70;;;;;;;25.22;100.00;98455.47;5154571;27;20099;-55
2022/05/24 06:07:54;;;;;;;5.78;3.10;;;;;;;25.65;100.00;98439.91;5154544;27;20083;-57
2022/05/24 06:10:21;;;;;;;6.80;3.00;;;;;;;25.79;100.00;98450.38;5154510;27;20059;-59
2022/05/24 06:12:47;;;;;;;3.88;3.30;;;;;;;25.84;100.00;98450.97;5154302;27;20061;-57
2022/05/24 06:15:14;;;;;;;4.25;2.80;;;;;;;25.80;100.00;98448.38;5154065;27;20057;-57
2022/05/24 06:17:44;;;;;;;4.13;3.13;;;;;;;26.14;100.00;98463.69;5154485;27;20174;-58
2022/05/24 06:20:11;;;;;;;5.55;2.90;;;;;;;26.62;100.00;98466.16;5154247;27;20445;-57
2022/05/24 06:22:38;;;;;;;3.22;2.80;;;;;;;26.55;100.00;98477.81;5154353;27;20058;-57
2022/05/24 06:25:05;;;;;;;9.73;3.20;;;;;;;26.57;100.00;98478.13;5154430;27;20613;-58
2022/05/24 06:27:32;;;;;;;3.92;2.83;;;;;;;26.88;98.83;98476.72;5154220;27;20063;-58
2022/05/24 06:29:58;;;;;;;5.00;2.80;;;;;;;27.02;97.05;98489.13;5154490;27;20137;-56
2022/05/24 06:32:24;;;;;;;5.10;2.72;;;;;;;26.68;100.00;98478.25;5153864;27;20055;-59
2022/05/24 06:34:52;;;;;;;10.27;2.63;;;;;;;26.81;97.54;98486.34;5154181;27;20505;-58
2022/05/24 06:37:19;;;;;;;5.75;2.70;;;;;;;26.90;94.62;98505.13;5153991;27;20078;-56
2022/05/24 06:39:45;;;;;;;5.68;2.40;;;;;;;27.00;98.11;98484.03;5154099;27;20050;-59
2022/05/24 06:42:11;;;;;;;3.75;2.97;;;;;;;27.30;99.12;98486.69;5153931;27;20066;-57
2022/05/24 06:44:38;;;;;;;5.38;2.13;;;;;;;26.92;90.89;98503.34;5154271;27;20441;-56
2022/05/24 06:47:05;;;;;;;3.25;2.30;;;;;;;27.49;92.91;98501.97;5153827;27;20054;-58
2022/05/24 06:49:32;;;;;;;4.72;2.25;;;;;;;27.68;91.62;98510.84;5153897;27;20063;-58
2022/05/24 06:51:58;;;;;;;4.18;2.17;;;;;;;27.38;91.99;98505.44;5153961;27;20443;-60
2022/05/24 06:54:24;;;;;;;4.13;2.53;;;;;;;26.92;92.11;98500.53;5153942;27;20055;-58
2022/05/24 06:56:50;;;;;;;4.78;2.50;;;;;;;27.15;93.69;98498.78;5154014;27;20059;-59
2022/05/24 07:04:46;;;;;;;5.75;2.53;;;;;;;27.71;94.87;98480.94;5153536;27;20084;-59
2022/05/24 07:07:12;;;;;;;4.22;2.08;;;;;;;27.43;91.90;98492.72;5154006;27;20077;-58
2022/05/24 07:09:40;;;;;;;2.42;2.22;;;;;;;27.51;90.29;98501.47;5153474;27;20054;-59
2022/05/24 07:12:07;;;;;;;6.25;2.15;;;;;;;27.59;93.44;98494.13;5153430;27;20050;-59
2022/05/24 07:14:33;;;;;;;2.33;1.63;;;;;;;27.98;82.44;98530.34;5151879;27;20411;-58
2022/05/24 07:17:00;;;;;;;3.70;2.00;;;;;;;27.78;84.16;98522.75;5153551;27;20054;-60
2022/05/24 07:19:27;;;;;;;3.70;1.98;;;;;;;27.35;83.58;98525.34;5153744;27;20072;-60
2022/05/24 07:21:53;;;;;;;3.15;1.90;;;;;;;27.49;82.16;98524.50;5153436;27;20054;-57
2022/05/24 07:24:19;;;;;;;3.78;2.17;;;;;;;27.95;84.41;98523.66;5153701;27;20058;-62
2022/05/24 07:26:45;;;;;;;3.58;2.10;;;;;;;27.46;81.22;98525.50;5153265;27;20058;-62
2022/05/24 07:29:12;;;;;;;5.93;2.10;;;;;;;27.66;86.09;98504.97;5153473;27;20057;-62
2022/05/24 07:31:39;;;;;;;13.05;3.90;;;;;;;27.52;95.11;98478.44;5153254;27;20062;-58
2022/05/24 07:34:06;;;;;;;3.45;2.03;;;;;;;28.15;87.34;98497.44;5153239;27;20063;-61
2022/05/24 07:36:33;;;;;;;8.57;2.38;;;;;;;27.39;84.93;98501.38;5152958;27;20051;-62
2022/05/24 07:38:59;;;;;;;3.00;1.80;;;;;;;28.06;76.54;98518.13;5153242;27;20456;-62
2022/05/24 07:46:55;;;;;;;5.40;1.90;;;;;;;26.82;74.78;98529.28;5153396;27;20074;-62
2022/05/24 07:49:22;;;;;;;2.05;1.65;;;;;;;26.54;75.53;98528.91;5152733;27;20050;-62
2022/05/24 07:51:49;;;;;;;3.13;1.42;;;;;;;27.41;74.81;98521.34;5152904;27;20047;-61
2022/05/24 07:54:15;;;;;;;1.52;1.15;;;;;;;27.56;75.01;98517.66;5153169;27;20077;-62
2022/05/24 07:56:42;;;;;;;2.40;1.50;;;;;;;26.32;74.81;98532.91;5152793;27;20102;-62
2022/05/24 07:59:08;;;;;;;1.42;1.10;;;;;;;26.75;72.69;98538.91;5153058;27;20047;-61
2022/05/24 08:01:34;;;;;;;3.20;1.38;;;;;;;26.77;67.32;98558.91;5152774;27;20096;-61
2022/05/24 08:04:01;;;;;;;3.63;1.55;;;;;;;26.94;69.02;98542.25;5152911;27;20062;-61
2022/05/24 08:06:27;;;;;;;6.18;1.70;;;;;;;27.33;70.15;98533.53;5152925;27;20050;-60
2022/05/24 08:08:54;;;;;;;5.05;1.40;;;;;;;26.61;71.31;98536.94;5152706;27;20059;-60
2022/05/24 08:11:20;;;;;;;3.25;1.30;;;;;;;26.73;70.22;98542.22;5152599;27;20539;-61
2022/05/24 08:13:46;;;;;;;1.38;1.27;;;;;;;25.94;73.09;98545.06;5152956;27;20046;-60
2022/05/24 08:16:13;;;;;;;1.30;1.20;;;;;;;26.66;68.23;98547.50;5152522;27;20051;-60
2022/05/24 08:18:39;;;;;;;2.50;1.10;;;;;;;28.15;70.79;98546.09;5153112;27;20062;-63
2022/05/24 08:21:05;;;;;;;1.98;1.50;;;;;;;27.54;70.43;98540.66;5153021;27;20353;-59
2022/05/24 08:23:32;;;;;;;3.83;1.50;;;;;;;27.81;71.73;98536.59;5152865;27;20054;-59
2022/05/24 08:25:59;;;;;;;1.95;1.05;;;;;;;28.50;69.88;98536.66;5152539;27;20497;-59
2022/05/24 08:28:25;;;;;;;1.98;1.30;;;;;;;28.48;70.18;98536.38;5152480;27;20062;-61
2022/05/24 08:30:54;;;;;;;2.13;1.30;;;;;;;28.79;69.16;98535.56;5152351;27;20046;-59
2022/05/24 08:33:23;;;;;;;2.42;1.20;;;;;;;27.07;71.09;98531.41;5152465;27;20642;-59
2022/05/24 08:35:51;;;;;;;1.40;1.20;;;;;;;25.94;69.71;98531.03;5152434;27;20047;-57
2022/05/24 08:38:17;;;;;;;3.13;1.30;;;;;;;26.26;70.34;98535.66;5151895;27;20063;-60
2022/05/24 08:40:45;;;;;;;2.05;0.80;;;;;;;26.93;68.80;98538.66;5152486;27;20050;-59
2022/05/24 08:43:39;;;;;;;2.28;1.02;;;;;;;26.84;71.06;98530.34;5151990;27;20420;-60
2022/05/24 08:49:03;;;;;;;1.75;1.20;;;;;;;26.93;70.77;98521.78;5152109;27;20045;-60
2022/05/24 08:51:34;;;;;;;4.38;1.67;;;;;;;26.84;70.21;98527.53;5151776;27;20050;-58
2022/05/24 08:54:05;;;;;;;2.45;1.30;;;;;;;27.94;69.08;98532.63;5152417;27;20051;-58
2022/05/24 08:56:35;;;;;;;1.92;1.30;;;;;;;28.20;69.97;98521.31;5151651;27;20050;-60
2022/05/24 08:59:08;;;;;;;9.77;1.85;;;;;;;28.38;69.56;98526.53;5151981;27;20545;-58
2022/05/24 09:01:35;;;;;;;1.80;1.38;;;;;;;28.36;68.79;98529.88;5151564;27;20510;-59
2022/05/24 09:04:02;;;;;;;8.25;1.88;;;;;;;27.70;73.32;98522.41;5151571;27;20374;-59
2022/05/24 09:06:36;;;;;;;4.00;1.45;;;;;;;27.78;72.15;98519.94;5151475;27;20058;-59
2022/05/24 09:09:16;;;;;;;3.15;1.20;;;;;;;28.11;68.37;98523.03;5152018;27;20562;-59
2022/05/24 09:11:56;;;;;;;5.40;2.10;;;;;;;28.70;70.50;98524.47;5151815;27;20059;-64
2022/05/24 09:14:33;;;;;;;2.65;1.20;;;;;;;28.01;69.84;98530.13;5151610;27;20130;-60
2022/05/24 09:17:11;;;;;;;2.80;1.20;;;;;;;27.95;70.69;98523.66;5151838;27;20051;-59
2022/05/24 09:19:42;;;;;;;3.28;1.40;;;;;;;26.60;70.93;98521.34;5151581;27;20051;-59
2022/05/24 09:22:10;;;;;;;3.10;1.30;;;;;;;26.31;71.43;98517.31;5151679;27;20115;-60
2022/05/24 09:24:42;;;;;;;4.15;1.40;;;;;;;26.56;75.82;98492.66;5151575;27;20073;-64
2022/05/24 09:27:15;;;;;;;2.95;1.30;;;;;;;25.76;73.45;98504.69;5151477;27;20078;-63
2022/05/24 09:29:55;;;;;;;3.97;1.42;;;;;;;26.42;74.66;98508.28;5151901;27;20461;-63
2022/05/24 09:32:27;;;;;;;1.42;1.33;;;;;;;24.65;77.23;98506.84;5151143;27;20055;-63
2022/05/24 09:35:02;;;;;;;2.95;1.50;;;;;;;26.00;73.76;98507.41;5151137;27;20058;-63
2022/05/24 09:37:28;;;;;;;1.27;1.20;;;;;;;26.91;71.09;98510.25;5150173;27;20058;-64
2022/05/24 09:40:00;;;;;;;2.10;1.40;;;;;;;27.38;71.16;98510.28;5151370;27;20065;-63
2022/05/24 09:42:29;;;;;;;2.95;1.27;;;;;;;27.86;73.10;98516.19;5151262;27;20058;-63
2022/05/24 09:45:00;;;;;;;5.32;1.20;;;;;;;27.64;72.84;98511.06;5151081;27;20057;-64
2022/05/24 09:47:30;;;;;;;9.82;1.80;;;;;;;25.67;74.70;98515.22;5151129;27;20062;-63
2022/05/24 09:50:23;;;;;;;2.70;1.10;;;;;;;24.47;78.56;98493.72;5150848;27;20054;-63
2022/05/24 09:53:08;;;;;;;4.18;1.75;;;;;;;24.92;86.07;98463.81;5151181;27;20130;-64
2022/05/24 09:55:42;;;;;;;3.70;1.42;;;;;;;25.67;82.10;98471.09;5150871;27;20059;-64
2022/05/24 09:58:26;;;;;;;3.17;1.40;;;;;;;25.76;79.83;98475.84;5151104;27;20103;-64
2022/05/24 10:00:56;;;;;;;2.17;1.40;;;;;;;25.86;76.07;98494.16;5150781;27;20358;-64
2022/05/24 10:03:27;;;;;;;2.13;1.20;;;;;;;25.85;76.59;98483.41;5150824;27;20051;-64
2022/05/24 10:05:56;;;;;;;2.45;1.73;;;;;;;25.47;79.64;98479.41;5151027;27;20512;-64
2022/05/24 10:08:22;;;;;;;3.50;1.63;;;;;;;25.68;80.28;98472.63;5150242;27;20055;-59
2022/05/24 10:10:56;;;;;;;2.00;1.35;;;;;;;25.13;79.16;98478.81;5150643;27;20062;-58
2022/05/24 10:13:35;;;;;;;3.50;1.30;;;;;;;24.71;81.13;98485.31;5150583;27;20454;-58
2022/05/24 10:16:10;;;;;;;1.55;1.27;;;;;;;25.88;82.79;98462.78;5150538;27;20099;-57
2022/05/24 10:18:46;;;;;;;1.95;1.45;;;;;;;25.51;79.86;98474.38;5150526;27;20051;-56
2022/05/24 10:21:19;;;;;;;3.28;1.73;;;;;;;25.23;90.76;98446.59;5150444;27;20061;-58
2022/05/24 10:23:54;;;;;;;4.22;1.48;;;;;;;24.33;85.38;98458.75;5150502;27;20050;-58
2022/05/24 10:26:31;;;;;;;2.53;1.60;;;;;;;24.62;82.96;98465.75;5150369;27;20058;-59
2022/05/24 10:29:04;;;;;;;2.05;1.30;;;;;;;24.06;83.35;98464.47;5150508;27;20059;-60
2022/05/24 10:31:46;;;;;;;1.60;1.20;;;;;;;23.49;86.25;98453.91;5150135;27;20104;-59
2022/05/24 10:40:03;;;;;;;2.17;1.58;;;;;;;23.43;96.91;98416.66;5150349;27;20505;-59
2022/05/24 10:42:43;;;;;;;2.50;1.77;;;;;;;23.82;93.25;98433.63;5150744;27;20127;-59
2022/05/24 10:45:15;;;;;;;3.03;1.67;;;;;;;24.61;86.80;98453.78;5150236;27;20055;-59
2022/05/24 10:47:49;;;;;;;1.80;1.70;;;;;;;24.58;88.81;98449.13;5151946;27;20054;-61
2022/05/24 10:50:17;;;;;;;;;;;;;;;24.50;86.91;98452.78;5154163;27;20057;-60
2022/05/24 10:52:50;;;;;;;1.95;1.73;;;;;;;24.77;85.70;98452.56;5153825;27;19928;-58
2022/05/24 10:55:20;;;;;;;9.13;1.73;;;;;;;24.83;87.81;98442.25;5153638;27;20057;-58
2022/05/24 10:57:54;;;;;;;1.67;1.55;;;;;;;23.52;88.32;98449.41;5153449;27;20051;-59
2022/05/24 11:00:23;;;;;;;1.88;1.50;;;;;;;23.04;93.53;98432.41;5153678;27;20058;-58
2022/05/24 11:02:58;;;;;;;6.30;1.33;;;;;;;23.13;91.71;98438.78;5153420;27;20058;-55
2022/05/24 11:05:28;;;;;;;1.58;1.33;;;;;;;22.89;92.78;98433.03;5153478;27;20501;-63
2022/05/24 11:08:02;;;;;;;2.25;1.58;;;;;;;23.03;96.12;98423.25;5153088;27;20062;-62
2022/05/24 11:10:31;;;;;;;1.58;1.40;;;;;;;22.49;100.00;98408.00;5153650;27;20509;-61
2022/05/24 11:13:11;;;;;;;1.80;1.67;;;;;;;23.33;93.39;98421.50;5153813;27;20084;-61
2022/05/24 11:15:40;;;;;;;4.35;1.40;;;;;;;23.52;94.51;98427.81;5153025;27;20061;-62
2022/05/24 11:18:14;;;;;;;3.28;1.40;;;;;;;23.71;93.12;98436.94;5153714;27;20058;-63
2022/05/24 11:20:45;;;;;;;3.85;1.83;;;;;;;23.70;95.44;98427.00;5153214;27;20137;-63
2022/05/24 11:23:16;;;;;;;2.38;1.60;;;;;;;23.08;91.74;98438.63;5153442;27;20062;-64
2022/05/24 11:25:49;;;;;;;7.78;1.80;;;;;;;22.46;100.00;98400.53;5153022;27;20062;-64
2022/05/24 11:28:22;;;;;;;2.25;1.67;;;;;;;22.00;98.70;98419.97;5153037;27;20402;-64
2022/05/24 11:30:49;;;;;;;2.17;1.60;;;;;;;21.80;96.47;98423.16;5153534;27;20055;-64
2022/05/24 11:33:31;;;;;;;2.20;1.55;;;;;;;22.18;99.33;98425.63;5152995;27;20151;-64
2022/05/24 11:36:22;;;;;;;3.03;1.48;;;;;;;22.20;93.42;98431.53;5153422;27;20054;-62
2022/05/24 11:38:49;;;;;;;3.33;1.42;;;;;;;22.63;98.86;98415.78;5152660;27;20103;-62
2022/05/24 11:41:28;;;;;;;4.85;1.92;;;;;;;22.29;90.80;98441.94;5153170;27;20054;-62
2022/05/24 11:44:01;;;;;;;7.68;2.03;;;;;;;22.38;91.87;98438.41;5153143;27;20050;-63
2022/05/24 11:46:46;;;;;;;1.70;1.48;;;;;;;22.67;95.80;98426.81;5152960;27;20062;-61
2022/05/24 11:50:03;;;;;;;2.60;1.70;;;;;;;23.01;95.63;98422.94;5153142;27;20046;-62
2022/05/24 11:53:00;;;;;;;3.33;1.63;;;;;;;23.06;99.79;98415.94;5152802;27;20047;-61
2022/05/24 11:55:42;;;;;;;2.25;1.60;;;;;;;22.27;97.45;98420.06;5152806;27;20062;-61
2022/05/24 11:58:40;;;;;;;1.58;1.48;;;;;;;22.34;100.00;98412.66;5152992;27;20094;-60
2022/05/24 12:01:10;;;;;;;2.30;1.70;;;;;;;22.69;99.79;98422.31;5152294;27;20054;-59
2022/05/24 12:09:17;;;;;;;3.75;1.80;;;;;;;23.80;100.00;98394.16;5152523;27;20518;-59
2022/05/24 12:11:45;;;;;;;2.20;1.40;;;;;;;23.88;94.83;98415.72;5152633;27;20573;-60
2022/05/24 12:14:16;;;;;;;3.40;1.50;;;;;;;23.69;85.85;98447.81;5152416;27;20055;-61
2022/05/24 12:17:07;;;;;;;2.03;1.67;;;;;;;24.16;85.98;98443.59;5152481;27;20051;-61
2022/05/24 12:19:52;;;;;;;2.53;1.52;;;;;;;23.73;85.66;98447.69;5152117;27;20092;-57
2022/05/24 12:22:22;;;;;;;3.85;1.33;;;;;;;23.94;90.29;98435.47;5152521;27;20050;-57
2022/05/24 12:24:59;;;;;;;2.95;1.20;;;;;;;23.51;90.32;98436.69;5152525;27;20054;-61
2022/05/24 12:27:49;;;;;;;2.03;1.33;;;;;;;23.06;90.91;98436.31;5152242;27;20059;-60
2022/05/24 12:30:35;;;;;;;3.38;1.20;;;;;;;22.92;91.79;98425.69;5152446;27;20147;-61
2022/05/24 12:33:18;;;;;;;3.10;1.35;;;;;;;22.97;90.38;98427.91;5151925;27;20521;-59